sensor_id;sensor_type;location;lat;lon;timestamp;P1;durP1;ratioP1;P2;durP2;ratioP2
51594;SDS011;37677;53.254;6.594;2022-09-14T00:02:15;7.50;;;2.40;;
51594;SDS011;37677;53.254;6.594;2022-09-14T00:04:41;10.70;;;2.10;;
51594;SDS011;37677;53.254;6.594;2022-09-14T00:07:06;6.85;;;2.20;;
51594;SDS011;37677;53.254;6.594;2022-09-14T00:09:33;8.40;;;2.47;;
51594;SDS011;37677;53.254;6.594;2022-09-14T00:11:59;5.60;;;2.15;;
51594;SDS011;37677;53.254;6.594;2022-09-14T00:14:24;9.45;;;2.63;;
51594;SDS011;37677;53.254;6.594;2022-09-14T00:16:50;6.97;;;2.30;;
51594;SDS011;37677;53.254;6.594;2022-09-14T00:19:22;8.20;;;2.85;;
51594;SDS011;37677;53.254;6.594;2022-09-14T00:21:54;10.32;;;2.50;;
51594;SDS011;37677;53.254;6.594;2022-09-14T00:24:22;6.68;;;2.00;;
51594;SDS011;37677;53.254;6.594;2022-09-14T00:26:49;5.88;;;2.10;;
51594;SDS011;37677;53.254;6.594;2022-09-14T00:29:15;10.60;;;3.30;;
51594;SDS011;37677;53.254;6.594;2022-09-14T00:31:41;6.45;;;2.58;;
51594;SDS011;37677;53.254;6.594;2022-09-14T00:34:09;10.63;;;2.08;;
51594;SDS011;37677;53.254;6.594;2022-09-14T00:36:39;6.38;;;2.53;;
51594;SDS011;37677;53.254;6.594;2022-09-14T00:39:07;6.53;;;2.30;;
51594;SDS011;37677;53.254;6.594;2022-09-14T00:41:34;9.50;;;2.30;;
51594;SDS011;37677;53.254;6.594;2022-09-14T00:44:06;10.23;;;2.38;;
51594;SDS011;37677;53.254;6.594;2022-09-14T00:49:07;7.38;;;2.22;;
51594;SDS011;37677;53.254;6.594;2022-09-14T00:51:38;7.25;;;2.60;;
51594;SDS011;37677;53.254;6.594;2022-09-14T00:54:09;14.93;;;3.97;;
51594;SDS011;37677;53.254;6.594;2022-09-14T00:56:35;6.63;;;2.15;;
51594;SDS011;37677;53.254;6.594;2022-09-14T00:59:03;8.73;;;2.50;;
51594;SDS011;37677;53.254;6.594;2022-09-14T01:01:33;6.43;;;2.55;;
51594;SDS011;37677;53.254;6.594;2022-09-14T01:03:59;5.15;;;2.40;;
51594;SDS011;37677;53.254;6.594;2022-09-14T01:06:42;3.33;;;1.70;;
51594;SDS011;37677;53.254;6.594;2022-09-14T01:09:35;8.75;;;2.47;;
51594;SDS011;37677;53.254;6.594;2022-09-14T01:12:20;10.88;;;2.50;;
51594;SDS011;37677;53.254;6.594;2022-09-14T01:15:01;5.57;;;1.92;;
51594;SDS011;37677;53.254;6.594;2022-09-14T01:18:04;8.52;;;2.40;;
51594;SDS011;37677;53.254;6.594;2022-09-14T01:20:47;8.93;;;3.08;;
51594;SDS011;37677;53.254;6.594;2022-09-14T01:23:46;8.13;;;2.20;;
51594;SDS011;37677;53.254;6.594;2022-09-14T01:31:46;10.52;;;2.88;;
51594;SDS011;37677;53.254;6.594;2022-09-14T01:37:08;6.22;;;1.90;;
51594;SDS011;37677;53.254;6.594;2022-09-14T01:39:41;7.40;;;2.22;;
51594;SDS011;37677;53.254;6.594;2022-09-14T01:42:12;6.03;;;1.95;;
51594;SDS011;37677;53.254;6.594;2022-09-14T01:44:41;8.88;;;2.58;;
51594;SDS011;37677;53.254;6.594;2022-09-14T01:47:25;6.93;;;2.03;;
51594;SDS011;37677;53.254;6.594;2022-09-14T01:50:08;8.93;;;2.42;;
51594;SDS011;37677;53.254;6.594;2022-09-14T01:52:46;6.70;;;2.17;;
51594;SDS011;37677;53.254;6.594;2022-09-14T01:55:27;11.80;;;2.90;;
51594;SDS011;37677;53.254;6.594;2022-09-14T01:58:06;7.82;;;1.83;;
51594;SDS011;37677;53.254;6.594;2022-09-14T02:00:38;11.30;;;2.58;;
51594;SDS011;37677;53.254;6.594;2022-09-14T02:03:14;8.00;;;1.85;;
51594;SDS011;37677;53.254;6.594;2022-09-14T02:05:55;6.72;;;2.33;;
51594;SDS011;37677;53.254;6.594;2022-09-14T02:08:23;9.40;;;2.60;;
51594;SDS011;37677;53.254;6.594;2022-09-14T02:10:51;15.48;;;3.15;;
51594;SDS011;37677;53.254;6.594;2022-09-14T02:13:17;7.15;;;2.20;;
51594;SDS011;37677;53.254;6.594;2022-09-14T02:15:43;8.23;;;1.90;;
51594;SDS011;37677;53.254;6.594;2022-09-14T02:18:09;9.43;;;2.35;;
51594;SDS011;37677;53.254;6.594;2022-09-14T02:20:43;11.45;;;2.75;;
51594;SDS011;37677;53.254;6.594;2022-09-14T02:23:14;6.72;;;2.35;;
51594;SDS011;37677;53.254;6.594;2022-09-14T02:25:41;4.65;;;2.03;;
51594;SDS011;37677;53.254;6.594;2022-09-14T02:28:07;8.55;;;2.10;;
51594;SDS011;37677;53.254;6.594;2022-09-14T02:30:36;7.28;;;2.17;;
51594;SDS011;37677;53.254;6.594;2022-09-14T02:35:54;6.90;;;2.38;;
51594;SDS011;37677;53.254;6.594;2022-09-14T02:38:31;9.23;;;2.90;;
51594;SDS011;37677;53.254;6.594;2022-09-14T02:43:49;6.20;;;1.88;;
51594;SDS011;37677;53.254;6.594;2022-09-14T02:46:28;6.68;;;1.73;;
51594;SDS011;37677;53.254;6.594;2022-09-14T02:49:10;12.98;;;2.30;;
51594;SDS011;37677;53.254;6.594;2022-09-14T02:51:55;5.03;;;1.90;;
51594;SDS011;37677;53.254;6.594;2022-09-14T02:57:00;6.18;;;2.00;;
51594;SDS011;37677;53.254;6.594;2022-09-14T02:59:26;9.50;;;2.72;;
51594;SDS011;37677;53.254;6.594;2022-09-14T03:01:52;7.00;;;2.20;;
51594;SDS011;37677;53.254;6.594;2022-09-14T03:04:18;6.40;;;2.17;;
51594;SDS011;37677;53.254;6.594;2022-09-14T03:06:43;9.23;;;2.25;;
51594;SDS011;37677;53.254;6.594;2022-09-14T03:09:09;7.57;;;2.22;;
51594;SDS011;37677;53.254;6.594;2022-09-14T03:11:34;10.48;;;2.70;;
51594;SDS011;37677;53.254;6.594;2022-09-14T03:14:00;10.13;;;3.00;;
51594;SDS011;37677;53.254;6.594;2022-09-14T03:16:26;6.28;;;2.40;;
51594;SDS011;37677;53.254;6.594;2022-09-14T03:18:52;7.38;;;2.50;;
51594;SDS011;37677;53.254;6.594;2022-09-14T03:21:17;7.22;;;2.25;;
51594;SDS011;37677;53.254;6.594;2022-09-14T03:23:44;5.13;;;2.20;;
51594;SDS011;37677;53.254;6.594;2022-09-14T03:26:13;6.80;;;2.30;;
51594;SDS011;37677;53.254;6.594;2022-09-14T03:28:40;9.07;;;2.60;;
51594;SDS011;37677;53.254;6.594;2022-09-14T03:31:07;5.75;;;2.50;;
51594;SDS011;37677;53.254;6.594;2022-09-14T03:33:34;12.38;;;2.42;;
51594;SDS011;37677;53.254;6.594;2022-09-14T03:36:07;10.27;;;3.33;;
51594;SDS011;37677;53.254;6.594;2022-09-14T03:38:35;11.50;;;3.95;;
51594;SDS011;37677;53.254;6.594;2022-09-14T03:41:00;8.98;;;2.60;;
51594;SDS011;37677;53.254;6.594;2022-09-14T03:43:31;10.27;;;2.63;;
51594;SDS011;37677;53.254;6.594;2022-09-14T03:45:57;6.35;;;2.67;;
51594;SDS011;37677;53.254;6.594;2022-09-14T03:48:28;7.90;;;2.72;;
51594;SDS011;37677;53.254;6.594;2022-09-14T03:50:54;7.30;;;2.45;;
51594;SDS011;37677;53.254;6.594;2022-09-14T03:53:19;11.00;;;2.35;;
51594;SDS011;37677;53.254;6.594;2022-09-14T03:55:45;8.85;;;2.40;;
51594;SDS011;37677;53.254;6.594;2022-09-14T03:58:10;10.15;;;2.50;;
51594;SDS011;37677;53.254;6.594;2022-09-14T04:00:38;6.40;;;2.47;;
51594;SDS011;37677;53.254;6.594;2022-09-14T04:03:04;6.32;;;2.30;;
51594;SDS011;37677;53.254;6.594;2022-09-14T04:05:29;8.57;;;2.50;;
51594;SDS011;37677;53.254;6.594;2022-09-14T04:07:55;7.07;;;2.22;;
51594;SDS011;37677;53.254;6.594;2022-09-14T04:10:21;9.60;;;2.28;;
51594;SDS011;37677;53.254;6.594;2022-09-14T04:12:46;8.63;;;2.65;;
51594;SDS011;37677;53.254;6.594;2022-09-14T04:15:12;6.22;;;2.22;;
51594;SDS011;37677;53.254;6.594;2022-09-14T04:17:37;9.95;;;2.50;;
51594;SDS011;37677;53.254;6.594;2022-09-14T04:20:04;9.02;;;3.15;;
51594;SDS011;37677;53.254;6.594;2022-09-14T04:22:30;7.30;;;2.67;;
51594;SDS011;37677;53.254;6.594;2022-09-14T04:24:57;9.13;;;2.60;;
51594;SDS011;37677;53.254;6.594;2022-09-14T04:27:23;5.88;;;2.53;;
51594;SDS011;37677;53.254;6.594;2022-09-14T04:29:49;6.07;;;2.30;;
51594;SDS011;37677;53.254;6.594;2022-09-14T04:32:15;7.78;;;2.17;;
51594;SDS011;37677;53.254;6.594;2022-09-14T04:34:41;7.05;;;2.30;;
51594;SDS011;37677;53.254;6.594;2022-09-14T04:37:06;9.68;;;2.50;;
51594;SDS011;37677;53.254;6.594;2022-09-14T04:39:32;6.72;;;2.47;;
51594;SDS011;37677;53.254;6.594;2022-09-14T04:41:58;9.32;;;3.33;;
51594;SDS011;37677;53.254;6.594;2022-09-14T04:44:24;8.18;;;3.20;;
51594;SDS011;37677;53.254;6.594;2022-09-14T04:46:49;10.82;;;3.38;;
51594;SDS011;37677;53.254;6.594;2022-09-14T04:49:15;6.05;;;2.50;;
51594;SDS011;37677;53.254;6.594;2022-09-14T04:51:43;7.30;;;3.00;;
51594;SDS011;37677;53.254;6.594;2022-09-14T04:54:12;9.90;;;2.92;;
51594;SDS011;37677;53.254;6.594;2022-09-14T04:56:39;7.60;;;2.83;;
51594;SDS011;37677;53.254;6.594;2022-09-14T04:59:05;11.18;;;3.03;;
51594;SDS011;37677;53.254;6.594;2022-09-14T05:01:35;8.02;;;2.65;;
51594;SDS011;37677;53.254;6.594;2022-09-14T05:04:05;9.27;;;2.83;;
51594;SDS011;37677;53.254;6.594;2022-09-14T05:06:33;8.90;;;3.10;;
51594;SDS011;37677;53.254;6.594;2022-09-14T05:09:02;10.65;;;2.85;;
51594;SDS011;37677;53.254;6.594;2022-09-14T05:11:32;7.13;;;3.17;;
51594;SDS011;37677;53.254;6.594;2022-09-14T05:14:00;8.65;;;2.83;;
51594;SDS011;37677;53.254;6.594;2022-09-14T05:16:27;8.57;;;3.20;;
51594;SDS011;37677;53.254;6.594;2022-09-14T05:18:55;9.40;;;3.00;;
51594;SDS011;37677;53.254;6.594;2022-09-14T05:21:23;7.28;;;2.90;;
51594;SDS011;37677;53.254;6.594;2022-09-14T05:23:53;7.75;;;2.83;;
51594;SDS011;37677;53.254;6.594;2022-09-14T05:26:20;8.90;;;2.28;;
51594;SDS011;37677;53.254;6.594;2022-09-14T05:28:51;7.97;;;2.30;;
51594;SDS011;37677;53.254;6.594;2022-09-14T05:31:18;6.18;;;2.47;;
51594;SDS011;37677;53.254;6.594;2022-09-14T05:33:45;7.57;;;2.28;;
51594;SDS011;37677;53.254;6.594;2022-09-14T05:36:11;9.32;;;2.42;;
51594;SDS011;37677;53.254;6.594;2022-09-14T05:38:37;6.10;;;2.17;;
51594;SDS011;37677;53.254;6.594;2022-09-14T05:41:04;8.82;;;2.38;;
51594;SDS011;37677;53.254;6.594;2022-09-14T05:43:32;11.43;;;2.50;;
51594;SDS011;37677;53.254;6.594;2022-09-14T05:46:04;7.63;;;2.58;;
51594;SDS011;37677;53.254;6.594;2022-09-14T05:48:40;8.75;;;2.42;;
51594;SDS011;37677;53.254;6.594;2022-09-14T05:51:08;7.25;;;2.00;;
51594;SDS011;37677;53.254;6.594;2022-09-14T05:53:35;8.38;;;2.70;;
51594;SDS011;37677;53.254;6.594;2022-09-14T05:56:02;8.80;;;2.95;;
51594;SDS011;37677;53.254;6.594;2022-09-14T05:58:33;5.65;;;2.03;;
51594;SDS011;37677;53.254;6.594;2022-09-14T06:01:14;7.85;;;2.17;;
51594;SDS011;37677;53.254;6.594;2022-09-14T06:03:51;10.25;;;2.50;;
51594;SDS011;37677;53.254;6.594;2022-09-14T06:06:18;7.05;;;2.40;;
51594;SDS011;37677;53.254;6.594;2022-09-14T06:08:44;5.80;;;2.40;;
51594;SDS011;37677;53.254;6.594;2022-09-14T06:11:15;5.97;;;2.15;;
51594;SDS011;37677;53.254;6.594;2022-09-14T06:13:42;9.82;;;2.20;;
51594;SDS011;37677;53.254;6.594;2022-09-14T06:16:09;6.50;;;1.95;;
51594;SDS011;37677;53.254;6.594;2022-09-14T06:18:37;7.97;;;1.92;;
51594;SDS011;37677;53.254;6.594;2022-09-14T06:21:04;7.63;;;2.60;;
51594;SDS011;37677;53.254;6.594;2022-09-14T06:23:30;5.60;;;1.90;;
51594;SDS011;37677;53.254;6.594;2022-09-14T06:25:57;8.15;;;2.45;;
51594;SDS011;37677;53.254;6.594;2022-09-14T06:28:24;7.03;;;2.13;;
51594;SDS011;37677;53.254;6.594;2022-09-14T06:30:51;7.35;;;1.92;;
51594;SDS011;37677;53.254;6.594;2022-09-14T06:33:19;6.75;;;1.90;;
51594;SDS011;37677;53.254;6.594;2022-09-14T06:38:33;7.03;;;2.00;;
51594;SDS011;37677;53.254;6.594;2022-09-14T06:41:00;5.72;;;1.95;;
51594;SDS011;37677;53.254;6.594;2022-09-14T06:43:29;8.15;;;2.00;;
51594;SDS011;37677;53.254;6.594;2022-09-14T06:45:58;4.90;;;1.50;;
51594;SDS011;37677;53.254;6.594;2022-09-14T06:48:27;5.55;;;2.08;;
51594;SDS011;37677;53.254;6.594;2022-09-14T06:50:55;5.13;;;1.80;;
51594;SDS011;37677;53.254;6.594;2022-09-14T06:53:21;8.38;;;1.75;;
51594;SDS011;37677;53.254;6.594;2022-09-14T06:55:47;5.90;;;1.40;;
51594;SDS011;37677;53.254;6.594;2022-09-14T06:58:12;5.35;;;1.80;;
51594;SDS011;37677;53.254;6.594;2022-09-14T07:00:38;6.25;;;1.70;;
51594;SDS011;37677;53.254;6.594;2022-09-14T07:03:04;9.40;;;1.83;;
51594;SDS011;37677;53.254;6.594;2022-09-14T07:05:30;7.85;;;1.90;;
51594;SDS011;37677;53.254;6.594;2022-09-14T07:07:56;7.57;;;2.22;;
51594;SDS011;37677;53.254;6.594;2022-09-14T07:10:22;8.57;;;2.35;;
51594;SDS011;37677;53.254;6.594;2022-09-14T07:12:52;6.72;;;2.40;;
51594;SDS011;37677;53.254;6.594;2022-09-14T07:15:19;5.75;;;2.00;;
51594;SDS011;37677;53.254;6.594;2022-09-14T07:17:46;11.07;;;2.53;;
51594;SDS011;37677;53.254;6.594;2022-09-14T07:20:11;7.90;;;2.25;;
51594;SDS011;37677;53.254;6.594;2022-09-14T07:22:39;8.20;;;1.90;;
51594;SDS011;37677;53.254;6.594;2022-09-14T07:25:05;8.38;;;2.08;;
51594;SDS011;37677;53.254;6.594;2022-09-14T07:27:32;8.77;;;2.05;;
51594;SDS011;37677;53.254;6.594;2022-09-14T07:29:58;8.77;;;2.00;;
51594;SDS011;37677;53.254;6.594;2022-09-14T07:32:23;5.35;;;1.95;;
51594;SDS011;37677;53.254;6.594;2022-09-14T07:34:49;8.45;;;2.00;;
51594;SDS011;37677;53.254;6.594;2022-09-14T07:37:15;11.93;;;2.60;;
51594;SDS011;37677;53.254;6.594;2022-09-14T07:39:40;8.50;;;1.90;;
51594;SDS011;37677;53.254;6.594;2022-09-14T07:42:06;5.60;;;1.98;;
51594;SDS011;37677;53.254;6.594;2022-09-14T07:44:32;10.73;;;1.85;;
51594;SDS011;37677;53.254;6.594;2022-09-14T07:46:57;8.65;;;1.88;;
51594;SDS011;37677;53.254;6.594;2022-09-14T07:49:23;11.15;;;2.20;;
51594;SDS011;37677;53.254;6.594;2022-09-14T07:51:49;11.25;;;2.60;;
51594;SDS011;37677;53.254;6.594;2022-09-14T07:54:16;6.30;;;2.10;;
51594;SDS011;37677;53.254;6.594;2022-09-14T07:56:42;9.13;;;2.10;;
51594;SDS011;37677;53.254;6.594;2022-09-14T07:59:09;7.60;;;2.63;;
51594;SDS011;37677;53.254;6.594;2022-09-14T08:01:36;7.63;;;2.00;;
51594;SDS011;37677;53.254;6.594;2022-09-14T08:04:02;6.18;;;1.92;;
51594;SDS011;37677;53.254;6.594;2022-09-14T08:06:28;10.18;;;2.50;;
51594;SDS011;37677;53.254;6.594;2022-09-14T08:08:55;6.93;;;1.70;;
51594;SDS011;37677;53.254;6.594;2022-09-14T08:11:23;7.80;;;1.90;;
51594;SDS011;37677;53.254;6.594;2022-09-14T08:13:50;13.55;;;2.55;;
51594;SDS011;37677;53.254;6.594;2022-09-14T08:16:23;6.93;;;1.85;;
51594;SDS011;37677;53.254;6.594;2022-09-14T08:18:58;9.57;;;1.95;;
51594;SDS011;37677;53.254;6.594;2022-09-14T08:21:25;8.68;;;1.90;;
51594;SDS011;37677;53.254;6.594;2022-09-14T08:23:52;9.48;;;1.85;;
51594;SDS011;37677;53.254;6.594;2022-09-14T08:26:20;12.80;;;2.65;;
51594;SDS011;37677;53.254;6.594;2022-09-14T08:28:46;9.50;;;2.80;;
51594;SDS011;37677;53.254;6.594;2022-09-14T08:31:16;7.57;;;1.90;;
51594;SDS011;37677;53.254;6.594;2022-09-14T08:33:50;7.78;;;2.38;;
51594;SDS011;37677;53.254;6.594;2022-09-14T08:36:18;12.32;;;1.83;;
51594;SDS011;37677;53.254;6.594;2022-09-14T08:38:44;6.93;;;1.80;;
51594;SDS011;37677;53.254;6.594;2022-09-14T08:43:54;7.50;;;2.83;;
51594;SDS011;37677;53.254;6.594;2022-09-14T08:46:34;10.75;;;2.25;;
51594;SDS011;37677;53.254;6.594;2022-09-14T08:49:15;4.28;;;1.42;;
51594;SDS011;37677;53.254;6.594;2022-09-14T08:51:48;8.30;;;1.70;;
51594;SDS011;37677;53.254;6.594;2022-09-14T08:54:15;7.82;;;2.38;;
51594;SDS011;37677;53.254;6.594;2022-09-14T08:56:42;9.40;;;2.40;;
51594;SDS011;37677;53.254;6.594;2022-09-14T09:07:45;7.80;;;2.08;;
51594;SDS011;37677;53.254;6.594;2022-09-14T09:10:19;9.02;;;1.70;;
51594;SDS011;37677;53.254;6.594;2022-09-14T09:12:50;8.45;;;1.65;;
51594;SDS011;37677;53.254;6.594;2022-09-14T09:15:22;7.85;;;1.90;;
51594;SDS011;37677;53.254;6.594;2022-09-14T09:17:51;5.45;;;1.70;;
51594;SDS011;37677;53.254;6.594;2022-09-14T09:20:55;9.25;;;1.77;;
51594;SDS011;37677;53.254;6.594;2022-09-14T09:23:26;6.38;;;1.85;;
51594;SDS011;37677;53.254;6.594;2022-09-14T09:25:58;6.10;;;2.20;;
51594;SDS011;37677;53.254;6.594;2022-09-14T09:28:41;7.75;;;2.00;;
51594;SDS011;37677;53.254;6.594;2022-09-14T09:31:13;5.90;;;1.67;;
51594;SDS011;37677;53.254;6.594;2022-09-14T09:33:40;6.30;;;1.63;;
51594;SDS011;37677;53.254;6.594;2022-09-14T09:36:06;8.85;;;2.70;;
51594;SDS011;37677;53.254;6.594;2022-09-14T09:38:35;6.63;;;1.52;;
51594;SDS011;37677;53.254;6.594;2022-09-14T09:41:05;9.77;;;2.08;;
51594;SDS011;37677;53.254;6.594;2022-09-14T09:44:01;6.68;;;1.70;;
51594;SDS011;37677;53.254;6.594;2022-09-14T09:46:38;7.95;;;1.48;;
51594;SDS011;37677;53.254;6.594;2022-09-14T09:49:17;8.67;;;1.80;;
51594;SDS011;37677;53.254;6.594;2022-09-14T09:51:44;5.95;;;1.70;;
51594;SDS011;37677;53.254;6.594;2022-09-14T09:56:52;8.85;;;1.80;;
51594;SDS011;37677;53.254;6.594;2022-09-14T10:04:57;5.50;;;1.33;;
51594;SDS011;37677;53.254;6.594;2022-09-14T10:07:29;5.25;;;1.60;;
51594;SDS011;37677;53.254;6.594;2022-09-14T10:10:01;7.63;;;1.42;;
51594;SDS011;37677;53.254;6.594;2022-09-14T10:12:35;6.70;;;1.90;;
51594;SDS011;37677;53.254;6.594;2022-09-14T10:18:01;9.95;;;2.03;;
51594;SDS011;37677;53.254;6.594;2022-09-14T10:20:41;8.20;;;1.50;;
51594;SDS011;37677;53.254;6.594;2022-09-14T10:23:20;7.47;;;1.73;;
51594;SDS011;37677;53.254;6.594;2022-09-14T10:25:49;6.65;;;1.75;;
51594;SDS011;37677;53.254;6.594;2022-09-14T10:28:27;5.70;;;1.67;;
51594;SDS011;37677;53.254;6.594;2022-09-14T10:33:26;7.35;;;1.75;;
51594;SDS011;37677;53.254;6.594;2022-09-14T10:36:40;7.07;;;2.08;;
51594;SDS011;37677;53.254;6.594;2022-09-14T10:38:44;17.17;;;2.13;;
51594;SDS011;37677;53.254;6.594;2022-09-14T11:06:45;6.22;;;1.85;;
51594;SDS011;37677;53.254;6.594;2022-09-14T11:09:21;6.15;;;2.05;;
51594;SDS011;37677;53.254;6.594;2022-09-14T11:12:28;4.63;;;1.52;;
51594;SDS011;37677;53.254;6.594;2022-09-14T11:20:29;7.60;;;1.90;;
51594;SDS011;37677;53.254;6.594;2022-09-14T11:23:18;4.82;;;1.73;;
51594;SDS011;37677;53.254;6.594;2022-09-14T11:29:15;6.40;;;1.80;;
51594;SDS011;37677;53.254;6.594;2022-09-14T11:31:50;7.15;;;2.00;;
51594;SDS011;37677;53.254;6.594;2022-09-14T11:34:26;6.85;;;1.70;;
51594;SDS011;37677;53.254;6.594;2022-09-14T11:37:16;8.23;;;1.85;;
51594;SDS011;37677;53.254;6.594;2022-09-14T11:42:31;10.35;;;1.67;;
51594;SDS011;37677;53.254;6.594;2022-09-14T11:45:06;6.75;;;2.00;;
51594;SDS011;37677;53.254;6.594;2022-09-14T11:47:41;9.23;;;1.65;;
51594;SDS011;37677;53.254;6.594;2022-09-14T11:50:20;6.72;;;1.80;;
51594;SDS011;37677;53.254;6.594;2022-09-14T11:52:54;7.97;;;2.20;;
51594;SDS011;37677;53.254;6.594;2022-09-14T11:55:35;9.45;;;1.65;;
51594;SDS011;37677;53.254;6.594;2022-09-14T11:58:06;11.23;;;2.40;;
51594;SDS011;37677;53.254;6.594;2022-09-14T12:00:43;9.27;;;2.10;;
51594;SDS011;37677;53.254;6.594;2022-09-14T12:11:43;6.30;;;1.73;;
51594;SDS011;37677;53.254;6.594;2022-09-14T12:14:33;5.15;;;1.33;;
51594;SDS011;37677;53.254;6.594;2022-09-14T12:20:19;9.57;;;1.70;;
51594;SDS011;37677;53.254;6.594;2022-09-14T12:22:51;8.60;;;1.80;;
51594;SDS011;37677;53.254;6.594;2022-09-14T12:28:39;7.45;;;2.13;;
51594;SDS011;37677;53.254;6.594;2022-09-14T12:31:19;9.23;;;1.70;;
51594;SDS011;37677;53.254;6.594;2022-09-14T12:49:52;4.30;;;1.35;;
51594;SDS011;37677;53.254;6.594;2022-09-14T12:52:30;6.05;;;1.65;;
51594;SDS011;37677;53.254;6.594;2022-09-14T12:57:43;6.45;;;1.42;;
51594;SDS011;37677;53.254;6.594;2022-09-14T13:00:31;12.20;;;2.15;;
51594;SDS011;37677;53.254;6.594;2022-09-14T13:06:13;4.25;;;1.80;;
51594;SDS011;37677;53.254;6.594;2022-09-14T13:08:45;10.43;;;2.15;;
51594;SDS011;37677;53.254;6.594;2022-09-14T13:11:18;7.30;;;1.80;;
51594;SDS011;37677;53.254;6.594;2022-09-14T13:14:02;4.40;;;1.38;;
51594;SDS011;37677;53.254;6.594;2022-09-14T13:16:38;7.60;;;1.90;;
51594;SDS011;37677;53.254;6.594;2022-09-14T13:19:24;9.93;;;1.83;;
51594;SDS011;37677;53.254;6.594;2022-09-14T13:21:56;6.13;;;1.52;;
51594;SDS011;37677;53.254;6.594;2022-09-14T13:24:26;7.28;;;1.60;;
51594;SDS011;37677;53.254;6.594;2022-09-14T13:26:54;3.05;;;1.42;;
51594;SDS011;37677;53.254;6.594;2022-09-14T13:29:22;6.55;;;1.50;;
51594;SDS011;37677;53.254;6.594;2022-09-14T13:31:50;10.75;;;1.50;;
51594;SDS011;37677;53.254;6.594;2022-09-14T13:34:18;7.43;;;1.60;;
51594;SDS011;37677;53.254;6.594;2022-09-14T13:36:50;5.20;;;1.45;;
51594;SDS011;37677;53.254;6.594;2022-09-14T13:39:27;4.55;;;1.30;;
51594;SDS011;37677;53.254;6.594;2022-09-14T13:41:58;8.25;;;2.08;;
51594;SDS011;37677;53.254;6.594;2022-09-14T13:44:35;5.70;;;1.52;;
51594;SDS011;37677;53.254;6.594;2022-09-14T13:47:09;11.00;;;2.53;;
51594;SDS011;37677;53.254;6.594;2022-09-14T13:49:37;12.05;;;1.80;;
51594;SDS011;37677;53.254;6.594;2022-09-14T13:54:47;9.07;;;1.45;;
51594;SDS011;37677;53.254;6.594;2022-09-14T13:57:15;4.65;;;1.38;;
51594;SDS011;37677;53.254;6.594;2022-09-14T14:02:51;4.93;;;1.55;;
51594;SDS011;37677;53.254;6.594;2022-09-14T14:05:30;8.98;;;1.85;;
51594;SDS011;37677;53.254;6.594;2022-09-14T14:07:58;7.47;;;1.90;;
51594;SDS011;37677;53.254;6.594;2022-09-14T14:13:00;8.27;;;1.55;;
51594;SDS011;37677;53.254;6.594;2022-09-14T14:23:46;6.53;;;1.67;;
51594;SDS011;37677;53.254;6.594;2022-09-14T14:26:16;12.90;;;2.15;;
51594;SDS011;37677;53.254;6.594;2022-09-14T14:28:46;8.73;;;1.60;;
51594;SDS011;37677;53.254;6.594;2022-09-14T14:31:13;8.32;;;1.55;;
51594;SDS011;37677;53.254;6.594;2022-09-14T14:33:43;5.45;;;1.60;;
51594;SDS011;37677;53.254;6.594;2022-09-14T14:36:10;5.05;;;1.42;;
51594;SDS011;37677;53.254;6.594;2022-09-14T14:38:37;8.02;;;1.77;;
51594;SDS011;37677;53.254;6.594;2022-09-14T14:41:05;4.80;;;1.33;;
51594;SDS011;37677;53.254;6.594;2022-09-14T14:43:33;7.03;;;1.50;;
51594;SDS011;37677;53.254;6.594;2022-09-14T14:46:02;7.75;;;1.67;;
51594;SDS011;37677;53.254;6.594;2022-09-14T14:48:31;3.63;;;1.30;;
51594;SDS011;37677;53.254;6.594;2022-09-14T14:50:57;3.80;;;1.30;;
51594;SDS011;37677;53.254;6.594;2022-09-14T14:53:24;4.90;;;1.40;;
51594;SDS011;37677;53.254;6.594;2022-09-14T14:55:51;4.00;;;1.38;;
51594;SDS011;37677;53.254;6.594;2022-09-14T14:58:19;4.60;;;1.40;;
51594;SDS011;37677;53.254;6.594;2022-09-14T15:00:46;3.35;;;1.17;;
51594;SDS011;37677;53.254;6.594;2022-09-14T15:03:13;8.60;;;1.50;;
51594;SDS011;37677;53.254;6.594;2022-09-14T15:05:43;6.15;;;1.23;;
51594;SDS011;37677;53.254;6.594;2022-09-14T15:08:10;5.22;;;1.70;;
51594;SDS011;37677;53.254;6.594;2022-09-14T15:10:37;6.18;;;1.52;;
51594;SDS011;37677;53.254;6.594;2022-09-14T15:13:05;5.10;;;1.30;;
51594;SDS011;37677;53.254;6.594;2022-09-14T15:15:31;4.95;;;1.30;;
51594;SDS011;37677;53.254;6.594;2022-09-14T15:17:57;17.25;;;2.30;;
51594;SDS011;37677;53.254;6.594;2022-09-14T15:20:24;6.13;;;1.98;;
51594;SDS011;37677;53.254;6.594;2022-09-14T15:22:50;11.25;;;1.90;;
51594;SDS011;37677;53.254;6.594;2022-09-14T15:25:16;4.28;;;1.30;;
51594;SDS011;37677;53.254;6.594;2022-09-14T15:27:43;5.25;;;1.15;;
51594;SDS011;37677;53.254;6.594;2022-09-14T15:30:10;2.60;;;1.20;;
51594;SDS011;37677;53.254;6.594;2022-09-14T15:32:36;8.45;;;1.48;;
51594;SDS011;37677;53.254;6.594;2022-09-14T15:35:03;4.55;;;1.48;;
51594;SDS011;37677;53.254;6.594;2022-09-14T15:37:30;5.88;;;1.55;;
51594;SDS011;37677;53.254;6.594;2022-09-14T15:39:55;7.70;;;1.55;;
51594;SDS011;37677;53.254;6.594;2022-09-14T15:42:21;8.73;;;1.67;;
51594;SDS011;37677;53.254;6.594;2022-09-14T15:44:48;2.80;;;1.23;;
51594;SDS011;37677;53.254;6.594;2022-09-14T15:47:14;7.82;;;2.00;;
51594;SDS011;37677;53.254;6.594;2022-09-14T15:49:40;6.78;;;1.50;;
51594;SDS011;37677;53.254;6.594;2022-09-14T15:52:07;4.13;;;1.00;;
51594;SDS011;37677;53.254;6.594;2022-09-14T15:54:34;5.45;;;1.17;;
51594;SDS011;37677;53.254;6.594;2022-09-14T15:57:01;6.25;;;1.42;;
51594;SDS011;37677;53.254;6.594;2022-09-14T15:59:30;4.75;;;1.38;;
51594;SDS011;37677;53.254;6.594;2022-09-14T16:01:55;2.85;;;1.17;;
51594;SDS011;37677;53.254;6.594;2022-09-14T16:04:21;5.68;;;2.08;;
51594;SDS011;37677;53.254;6.594;2022-09-14T16:06:47;11.55;;;1.80;;
51594;SDS011;37677;53.254;6.594;2022-09-14T16:09:14;8.52;;;1.50;;
51594;SDS011;37677;53.254;6.594;2022-09-14T16:11:40;2.83;;;1.40;;
51594;SDS011;37677;53.254;6.594;2022-09-14T16:14:07;6.47;;;1.42;;
51594;SDS011;37677;53.254;6.594;2022-09-14T16:16:35;7.03;;;1.48;;
51594;SDS011;37677;53.254;6.594;2022-09-14T16:19:05;7.22;;;1.55;;
51594;SDS011;37677;53.254;6.594;2022-09-14T16:21:32;3.67;;;1.10;;
51594;SDS011;37677;53.254;6.594;2022-09-14T16:23:59;7.13;;;1.60;;
51594;SDS011;37677;53.254;6.594;2022-09-14T16:26:28;5.53;;;1.40;;
51594;SDS011;37677;53.254;6.594;2022-09-14T16:28:56;7.75;;;1.40;;
51594;SDS011;37677;53.254;6.594;2022-09-14T16:31:27;5.82;;;1.35;;
51594;SDS011;37677;53.254;6.594;2022-09-14T16:33:55;7.68;;;1.83;;
51594;SDS011;37677;53.254;6.594;2022-09-14T16:36:23;13.38;;;2.22;;
51594;SDS011;37677;53.254;6.594;2022-09-14T16:38:56;9.50;;;1.70;;
51594;SDS011;37677;53.254;6.594;2022-09-14T16:41:24;6.05;;;1.80;;
51594;SDS011;37677;53.254;6.594;2022-09-14T16:43:58;6.72;;;1.77;;
51594;SDS011;37677;53.254;6.594;2022-09-14T16:46:26;5.93;;;1.50;;
51594;SDS011;37677;53.254;6.594;2022-09-14T16:48:55;8.70;;;1.60;;
51594;SDS011;37677;53.254;6.594;2022-09-14T16:51:25;5.13;;;1.38;;
51594;SDS011;37677;53.254;6.594;2022-09-14T16:53:53;4.65;;;1.40;;
51594;SDS011;37677;53.254;6.594;2022-09-14T16:56:20;3.72;;;1.35;;
51594;SDS011;37677;53.254;6.594;2022-09-14T16:58:48;8.60;;;2.35;;
51594;SDS011;37677;53.254;6.594;2022-09-14T17:01:20;6.75;;;1.55;;
51594;SDS011;37677;53.254;6.594;2022-09-14T17:03:50;5.57;;;1.35;;
51594;SDS011;37677;53.254;6.594;2022-09-14T17:06:20;6.25;;;2.13;;
51594;SDS011;37677;53.254;6.594;2022-09-14T17:08:59;5.33;;;1.67;;
51594;SDS011;37677;53.254;6.594;2022-09-14T17:11:32;7.45;;;1.50;;
51594;SDS011;37677;53.254;6.594;2022-09-14T17:13:59;7.57;;;1.48;;
51594;SDS011;37677;53.254;6.594;2022-09-14T17:16:31;7.22;;;1.50;;
51594;SDS011;37677;53.254;6.594;2022-09-14T17:19:03;6.00;;;1.50;;
51594;SDS011;37677;53.254;6.594;2022-09-14T17:21:31;7.57;;;1.67;;